sensor_id;sensor_type;location;lat;lon;timestamp;P1;durP1;ratioP1;P2;durP2;ratioP2
48367;SDS011;34173;47.446;18.912;2022-07-22T00:00:49;7.20;;;3.65;;
48367;SDS011;34173;47.446;18.912;2022-07-22T00:03:16;5.47;;;3.10;;
48367;SDS011;34173;47.446;18.912;2022-07-22T00:05:44;9.13;;;3.55;;
48367;SDS011;34173;47.446;18.912;2022-07-22T00:08:11;8.43;;;3.37;;
48367;SDS011;34173;47.446;18.912;2022-07-22T00:10:39;6.60;;;3.55;;
48367;SDS011;34173;47.446;18.912;2022-07-22T00:13:07;7.57;;;3.62;;
48367;SDS011;34173;47.446;18.912;2022-07-22T00:15:35;7.25;;;3.62;;
48367;SDS011;34173;47.446;18.912;2022-07-22T00:18:02;9.30;;;4.18;;
48367;SDS011;34173;47.446;18.912;2022-07-22T00:20:31;8.15;;;3.53;;
48367;SDS011;34173;47.446;18.912;2022-07-22T00:22:59;6.07;;;3.65;;
48367;SDS011;34173;47.446;18.912;2022-07-22T00:25:27;8.90;;;3.75;;
48367;SDS011;34173;47.446;18.912;2022-07-22T00:27:55;9.05;;;4.07;;
48367;SDS011;34173;47.446;18.912;2022-07-22T00:30:23;9.82;;;3.83;;
48367;SDS011;34173;47.446;18.912;2022-07-22T00:32:51;7.93;;;3.30;;
48367;SDS011;34173;47.446;18.912;2022-07-22T00:35:20;5.40;;;3.10;;
48367;SDS011;34173;47.446;18.912;2022-07-22T00:37:47;6.10;;;3.10;;
48367;SDS011;34173;47.446;18.912;2022-07-22T00:40:15;6.18;;;2.87;;
48367;SDS011;34173;47.446;18.912;2022-07-22T00:42:42;6.30;;;3.37;;
48367;SDS011;34173;47.446;18.912;2022-07-22T00:45:11;8.55;;;3.00;;
48367;SDS011;34173;47.446;18.912;2022-07-22T00:47:39;7.12;;;2.87;;
48367;SDS011;34173;47.446;18.912;2022-07-22T00:50:07;7.47;;;2.75;;
48367;SDS011;34173;47.446;18.912;2022-07-22T00:52:35;5.87;;;2.90;;
48367;SDS011;34173;47.446;18.912;2022-07-22T00:55:03;8.38;;;2.67;;
48367;SDS011;34173;47.446;18.912;2022-07-22T00:57:32;5.00;;;3.10;;
48367;SDS011;34173;47.446;18.912;2022-07-22T00:59:59;7.55;;;2.97;;
48367;SDS011;34173;47.446;18.912;2022-07-22T01:02:27;7.00;;;2.78;;
48367;SDS011;34173;47.446;18.912;2022-07-22T01:04:54;8.15;;;3.17;;
48367;SDS011;34173;47.446;18.912;2022-07-22T01:07:22;9.50;;;2.87;;
48367;SDS011;34173;47.446;18.912;2022-07-22T01:09:50;6.07;;;2.75;;
48367;SDS011;34173;47.446;18.912;2022-07-22T01:12:18;5.60;;;3.20;;
48367;SDS011;34173;47.446;18.912;2022-07-22T01:14:45;6.18;;;3.37;;
48367;SDS011;34173;47.446;18.912;2022-07-22T01:17:13;7.40;;;3.30;;
48367;SDS011;34173;47.446;18.912;2022-07-22T01:19:42;6.78;;;2.92;;
48367;SDS011;34173;47.446;18.912;2022-07-22T01:22:10;7.70;;;2.83;;
48367;SDS011;34173;47.446;18.912;2022-07-22T01:24:37;7.60;;;3.10;;
48367;SDS011;34173;47.446;18.912;2022-07-22T01:27:05;5.65;;;3.12;;
48367;SDS011;34173;47.446;18.912;2022-07-22T01:29:33;8.60;;;3.47;;
48367;SDS011;34173;47.446;18.912;2022-07-22T01:32:01;6.45;;;3.50;;
48367;SDS011;34173;47.446;18.912;2022-07-22T01:34:29;8.27;;;3.47;;
48367;SDS011;34173;47.446;18.912;2022-07-22T01:36:56;11.23;;;3.42;;
48367;SDS011;34173;47.446;18.912;2022-07-22T01:39:25;5.53;;;2.90;;
48367;SDS011;34173;47.446;18.912;2022-07-22T01:41:52;6.60;;;2.87;;
48367;SDS011;34173;47.446;18.912;2022-07-22T01:44:20;8.15;;;3.22;;
48367;SDS011;34173;47.446;18.912;2022-07-22T01:46:48;8.82;;;3.90;;
48367;SDS011;34173;47.446;18.912;2022-07-22T01:49:17;6.62;;;3.15;;
48367;SDS011;34173;47.446;18.912;2022-07-22T01:51:44;7.18;;;2.90;;
48367;SDS011;34173;47.446;18.912;2022-07-22T01:54:12;8.70;;;3.10;;
48367;SDS011;34173;47.446;18.912;2022-07-22T01:56:40;13.48;;;3.47;;
48367;SDS011;34173;47.446;18.912;2022-07-22T01:59:07;8.38;;;3.03;;
48367;SDS011;34173;47.446;18.912;2022-07-22T02:01:35;5.32;;;3.08;;
48367;SDS011;34173;47.446;18.912;2022-07-22T02:04:03;5.87;;;2.83;;
48367;SDS011;34173;47.446;18.912;2022-07-22T02:06:31;6.85;;;2.95;;
48367;SDS011;34173;47.446;18.912;2022-07-22T02:08:59;8.48;;;2.70;;
48367;SDS011;34173;47.446;18.912;2022-07-22T02:11:28;6.20;;;2.30;;
48367;SDS011;34173;47.446;18.912;2022-07-22T02:13:55;5.60;;;2.17;;
48367;SDS011;34173;47.446;18.912;2022-07-22T02:16:23;4.62;;;2.25;;
48367;SDS011;34173;47.446;18.912;2022-07-22T02:18:51;5.78;;;2.47;;
48367;SDS011;34173;47.446;18.912;2022-07-22T02:21:20;7.22;;;2.72;;
48367;SDS011;34173;47.446;18.912;2022-07-22T02:23:50;7.65;;;2.15;;
48367;SDS011;34173;47.446;18.912;2022-07-22T02:26:18;6.07;;;2.22;;
48367;SDS011;34173;47.446;18.912;2022-07-22T02:28:45;8.35;;;2.47;;
48367;SDS011;34173;47.446;18.912;2022-07-22T02:31:13;6.37;;;2.30;;
48367;SDS011;34173;47.446;18.912;2022-07-22T02:33:41;5.78;;;2.40;;
48367;SDS011;34173;47.446;18.912;2022-07-22T02:36:09;7.00;;;2.22;;
48367;SDS011;34173;47.446;18.912;2022-07-22T02:38:36;5.40;;;2.28;;
48367;SDS011;34173;47.446;18.912;2022-07-22T02:41:04;4.82;;;2.40;;
48367;SDS011;34173;47.446;18.912;2022-07-22T02:43:32;4.47;;;2.20;;
48367;SDS011;34173;47.446;18.912;2022-07-22T02:46:00;6.97;;;2.40;;
48367;SDS011;34173;47.446;18.912;2022-07-22T02:48:27;6.68;;;2.33;;
48367;SDS011;34173;47.446;18.912;2022-07-22T02:50:56;5.07;;;2.17;;
48367;SDS011;34173;47.446;18.912;2022-07-22T02:53:23;6.12;;;2.45;;
48367;SDS011;34173;47.446;18.912;2022-07-22T02:55:51;4.68;;;2.08;;
48367;SDS011;34173;47.446;18.912;2022-07-22T02:58:18;6.10;;;2.55;;
48367;SDS011;34173;47.446;18.912;2022-07-22T03:00:46;5.82;;;2.58;;
48367;SDS011;34173;47.446;18.912;2022-07-22T03:03:14;9.82;;;2.45;;
48367;SDS011;34173;47.446;18.912;2022-07-22T03:05:42;5.15;;;2.28;;
48367;SDS011;34173;47.446;18.912;2022-07-22T03:08:11;6.40;;;2.87;;
48367;SDS011;34173;47.446;18.912;2022-07-22T03:10:39;6.05;;;2.50;;
48367;SDS011;34173;47.446;18.912;2022-07-22T03:13:07;7.15;;;2.50;;
48367;SDS011;34173;47.446;18.912;2022-07-22T03:15:34;8.00;;;2.67;;
48367;SDS011;34173;47.446;18.912;2022-07-22T03:18:02;5.85;;;2.17;;
48367;SDS011;34173;47.446;18.912;2022-07-22T03:20:30;5.90;;;2.40;;
48367;SDS011;34173;47.446;18.912;2022-07-22T03:22:58;4.97;;;2.45;;
48367;SDS011;34173;47.446;18.912;2022-07-22T03:25:25;6.47;;;2.30;;
48367;SDS011;34173;47.446;18.912;2022-07-22T03:27:54;6.22;;;2.70;;
48367;SDS011;34173;47.446;18.912;2022-07-22T03:30:21;11.77;;;2.75;;
48367;SDS011;34173;47.446;18.912;2022-07-22T03:32:49;7.07;;;2.62;;
48367;SDS011;34173;47.446;18.912;2022-07-22T03:35:18;6.00;;;2.50;;
48367;SDS011;34173;47.446;18.912;2022-07-22T03:37:46;4.75;;;1.98;;
48367;SDS011;34173;47.446;18.912;2022-07-22T03:40:13;5.80;;;2.05;;
48367;SDS011;34173;47.446;18.912;2022-07-22T03:42:43;7.37;;;2.22;;
48367;SDS011;34173;47.446;18.912;2022-07-22T03:45:13;6.00;;;2.20;;
48367;SDS011;34173;47.446;18.912;2022-07-22T03:47:40;5.70;;;2.40;;
48367;SDS011;34173;47.446;18.912;2022-07-22T03:50:09;7.28;;;2.28;;
48367;SDS011;34173;47.446;18.912;2022-07-22T03:52:36;5.25;;;2.12;;
48367;SDS011;34173;47.446;18.912;2022-07-22T03:55:04;7.57;;;2.17;;
48367;SDS011;34173;47.446;18.912;2022-07-22T03:57:33;5.78;;;2.60;;
48367;SDS011;34173;47.446;18.912;2022-07-22T04:00:00;8.57;;;2.30;;
48367;SDS011;34173;47.446;18.912;2022-07-22T04:02:28;4.45;;;2.05;;
48367;SDS011;34173;47.446;18.912;2022-07-22T04:04:56;5.53;;;2.45;;
48367;SDS011;34173;47.446;18.912;2022-07-22T04:07:24;8.90;;;2.95;;
48367;SDS011;34173;47.446;18.912;2022-07-22T04:09:52;6.15;;;2.58;;
48367;SDS011;34173;47.446;18.912;2022-07-22T04:12:33;7.15;;;2.67;;
48367;SDS011;34173;47.446;18.912;2022-07-22T04:15:03;7.75;;;2.85;;
48367;SDS011;34173;47.446;18.912;2022-07-22T04:17:31;6.60;;;2.70;;
48367;SDS011;34173;47.446;18.912;2022-07-22T04:19:59;5.70;;;2.70;;
48367;SDS011;34173;47.446;18.912;2022-07-22T04:22:31;7.97;;;2.45;;
48367;SDS011;34173;47.446;18.912;2022-07-22T04:24:59;7.95;;;2.75;;
48367;SDS011;34173;47.446;18.912;2022-07-22T04:27:27;10.07;;;3.17;;
48367;SDS011;34173;47.446;18.912;2022-07-22T04:29:54;8.10;;;3.30;;
48367;SDS011;34173;47.446;18.912;2022-07-22T04:32:22;7.07;;;2.75;;
48367;SDS011;34173;47.446;18.912;2022-07-22T04:34:51;6.35;;;2.78;;
48367;SDS011;34173;47.446;18.912;2022-07-22T04:37:18;8.88;;;2.45;;
48367;SDS011;34173;47.446;18.912;2022-07-22T04:39:46;7.25;;;2.75;;
48367;SDS011;34173;47.446;18.912;2022-07-22T04:42:14;7.43;;;2.60;;
48367;SDS011;34173;47.446;18.912;2022-07-22T04:44:42;8.30;;;2.75;;
48367;SDS011;34173;47.446;18.912;2022-07-22T04:47:12;4.30;;;2.22;;
48367;SDS011;34173;47.446;18.912;2022-07-22T04:49:40;5.45;;;2.28;;
48367;SDS011;34173;47.446;18.912;2022-07-22T04:52:08;4.53;;;2.37;;
48367;SDS011;34173;47.446;18.912;2022-07-22T04:54:38;6.65;;;2.95;;
48367;SDS011;34173;47.446;18.912;2022-07-22T04:57:06;7.28;;;2.75;;
48367;SDS011;34173;47.446;18.912;2022-07-22T04:59:34;6.93;;;2.25;;
48367;SDS011;34173;47.446;18.912;2022-07-22T05:02:02;10.43;;;2.45;;
48367;SDS011;34173;47.446;18.912;2022-07-22T05:04:30;9.30;;;2.55;;
48367;SDS011;34173;47.446;18.912;2022-07-22T05:06:58;5.75;;;2.40;;
48367;SDS011;34173;47.446;18.912;2022-07-22T05:09:25;7.45;;;2.50;;
48367;SDS011;34173;47.446;18.912;2022-07-22T05:11:53;7.07;;;2.55;;
48367;SDS011;34173;47.446;18.912;2022-07-22T05:14:21;6.25;;;2.28;;
48367;SDS011;34173;47.446;18.912;2022-07-22T05:16:49;8.77;;;3.03;;
48367;SDS011;34173;47.446;18.912;2022-07-22T05:19:16;7.90;;;2.72;;
48367;SDS011;34173;47.446;18.912;2022-07-22T05:21:44;6.78;;;3.00;;
48367;SDS011;34173;47.446;18.912;2022-07-22T05:24:12;6.50;;;2.90;;
48367;SDS011;34173;47.446;18.912;2022-07-22T05:26:40;5.55;;;2.50;;
48367;SDS011;34173;47.446;18.912;2022-07-22T05:29:07;8.95;;;3.28;;
48367;SDS011;34173;47.446;18.912;2022-07-22T05:31:35;8.18;;;2.80;;
48367;SDS011;34173;47.446;18.912;2022-07-22T05:34:03;6.80;;;3.05;;
48367;SDS011;34173;47.446;18.912;2022-07-22T05:36:31;6.25;;;2.97;;
48367;SDS011;34173;47.446;18.912;2022-07-22T05:38:58;9.90;;;3.20;;
48367;SDS011;34173;47.446;18.912;2022-07-22T05:41:27;7.15;;;3.00;;
48367;SDS011;34173;47.446;18.912;2022-07-22T05:43:55;8.43;;;3.12;;
48367;SDS011;34173;47.446;18.912;2022-07-22T05:46:23;13.68;;;3.80;;
48367;SDS011;34173;47.446;18.912;2022-07-22T05:48:50;9.10;;;3.80;;
48367;SDS011;34173;47.446;18.912;2022-07-22T05:51:18;14.85;;;4.20;;
48367;SDS011;34173;47.446;18.912;2022-07-22T05:53:46;10.15;;;4.10;;
48367;SDS011;34173;47.446;18.912;2022-07-22T05:56:15;11.23;;;3.60;;
48367;SDS011;34173;47.446;18.912;2022-07-22T05:58:42;9.60;;;3.83;;
48367;SDS011;34173;47.446;18.912;2022-07-22T06:01:12;9.90;;;4.05;;
48367;SDS011;34173;47.446;18.912;2022-07-22T06:03:40;8.32;;;3.45;;
48367;SDS011;34173;47.446;18.912;2022-07-22T06:06:10;8.82;;;4.37;;
48367;SDS011;34173;47.446;18.912;2022-07-22T06:08:37;8.73;;;3.50;;
48367;SDS011;34173;47.446;18.912;2022-07-22T06:11:06;6.25;;;3.40;;
48367;SDS011;34173;47.446;18.912;2022-07-22T06:13:34;8.15;;;2.80;;
48367;SDS011;34173;47.446;18.912;2022-07-22T06:16:02;6.82;;;3.28;;
48367;SDS011;34173;47.446;18.912;2022-07-22T06:18:30;7.40;;;2.30;;
48367;SDS011;34173;47.446;18.912;2022-07-22T06:20:58;4.25;;;1.98;;
48367;SDS011;34173;47.446;18.912;2022-07-22T06:23:26;5.82;;;2.20;;
48367;SDS011;34173;47.446;18.912;2022-07-22T06:25:53;8.77;;;2.25;;
48367;SDS011;34173;47.446;18.912;2022-07-22T06:28:22;4.97;;;1.92;;
48367;SDS011;34173;47.446;18.912;2022-07-22T06:30:49;6.90;;;1.52;;
48367;SDS011;34173;47.446;18.912;2022-07-22T06:33:18;4.82;;;1.60;;
48367;SDS011;34173;47.446;18.912;2022-07-22T06:35:45;3.12;;;1.52;;
48367;SDS011;34173;47.446;18.912;2022-07-22T06:38:13;3.42;;;1.83;;
48367;SDS011;34173;47.446;18.912;2022-07-22T06:41:00;5.55;;;1.87;;
48367;SDS011;34173;47.446;18.912;2022-07-22T06:43:29;5.53;;;2.00;;
48367;SDS011;34173;47.446;18.912;2022-07-22T06:45:58;22.48;;;2.70;;
48367;SDS011;34173;47.446;18.912;2022-07-22T06:48:29;6.40;;;2.10;;
48367;SDS011;34173;47.446;18.912;2022-07-22T06:50:57;4.62;;;2.00;;
48367;SDS011;34173;47.446;18.912;2022-07-22T06:53:25;7.70;;;1.87;;
48367;SDS011;34173;47.446;18.912;2022-07-22T06:55:53;4.45;;;1.85;;
48367;SDS011;34173;47.446;18.912;2022-07-22T06:58:50;8.15;;;1.80;;
48367;SDS011;34173;47.446;18.912;2022-07-22T07:01:18;5.80;;;2.33;;
48367;SDS011;34173;47.446;18.912;2022-07-22T07:03:46;4.93;;;1.90;;
48367;SDS011;34173;47.446;18.912;2022-07-22T07:06:15;4.62;;;1.85;;
48367;SDS011;34173;47.446;18.912;2022-07-22T07:08:45;5.25;;;1.98;;
48367;SDS011;34173;47.446;18.912;2022-07-22T07:11:13;6.82;;;1.90;;
48367;SDS011;34173;47.446;18.912;2022-07-22T07:13:41;4.93;;;2.17;;
48367;SDS011;34173;47.446;18.912;2022-07-22T07:16:09;4.28;;;1.90;;
48367;SDS011;34173;47.446;18.912;2022-07-22T07:18:37;5.12;;;2.00;;
48367;SDS011;34173;47.446;18.912;2022-07-22T07:21:05;4.82;;;1.92;;
48367;SDS011;34173;47.446;18.912;2022-07-22T07:23:36;4.70;;;1.90;;
48367;SDS011;34173;47.446;18.912;2022-07-22T07:26:05;9.93;;;2.20;;
48367;SDS011;34173;47.446;18.912;2022-07-22T07:28:33;3.58;;;2.08;;
48367;SDS011;34173;47.446;18.912;2022-07-22T07:31:09;5.47;;;1.77;;
48367;SDS011;34173;47.446;18.912;2022-07-22T07:33:37;6.60;;;2.10;;
48367;SDS011;34173;47.446;18.912;2022-07-22T07:38:48;4.12;;;1.58;;
48367;SDS011;34173;47.446;18.912;2022-07-22T07:58:42;11.55;;;2.95;;
48367;SDS011;34173;47.446;18.912;2022-07-22T08:01:55;6.75;;;2.12;;
48367;SDS011;34173;47.446;18.912;2022-07-22T08:04:29;6.62;;;2.30;;
48367;SDS011;34173;47.446;18.912;2022-07-22T08:07:07;6.05;;;2.05;;
48367;SDS011;34173;47.446;18.912;2022-07-22T08:16:00;9.25;;;2.28;;
48367;SDS011;34173;47.446;18.912;2022-07-22T08:18:28;7.93;;;2.10;;
48367;SDS011;34173;47.446;18.912;2022-07-22T08:20:56;8.68;;;2.53;;
48367;SDS011;34173;47.446;18.912;2022-07-22T08:23:28;7.05;;;2.10;;
48367;SDS011;34173;47.446;18.912;2022-07-22T08:25:56;9.05;;;2.28;;
48367;SDS011;34173;47.446;18.912;2022-07-22T08:28:24;4.87;;;2.00;;
48367;SDS011;34173;47.446;18.912;2022-07-22T08:30:52;7.90;;;1.80;;
48367;SDS011;34173;47.446;18.912;2022-07-22T08:33:19;5.80;;;2.10;;
48367;SDS011;34173;47.446;18.912;2022-07-22T08:35:47;5.50;;;2.20;;
48367;SDS011;34173;47.446;18.912;2022-07-22T08:38:15;5.93;;;2.33;;
48367;SDS011;34173;47.446;18.912;2022-07-22T08:40:43;10.43;;;2.53;;
48367;SDS011;34173;47.446;18.912;2022-07-22T08:43:11;9.35;;;2.70;;
48367;SDS011;34173;47.446;18.912;2022-07-22T08:45:39;12.20;;;2.78;;
48367;SDS011;34173;47.446;18.912;2022-07-22T08:48:08;6.47;;;2.30;;
48367;SDS011;34173;47.446;18.912;2022-07-22T08:50:38;8.48;;;2.60;;
48367;SDS011;34173;47.446;18.912;2022-07-22T08:53:13;7.47;;;2.50;;
48367;SDS011;34173;47.446;18.912;2022-07-22T08:55:45;10.10;;;2.60;;
48367;SDS011;34173;47.446;18.912;2022-07-22T08:58:14;17.43;;;2.57;;
48367;SDS011;34173;47.446;18.912;2022-07-22T09:00:42;6.37;;;3.08;;
48367;SDS011;34173;47.446;18.912;2022-07-22T09:03:23;5.85;;;2.20;;
48367;SDS011;34173;47.446;18.912;2022-07-22T09:05:53;5.12;;;2.72;;
48367;SDS011;34173;47.446;18.912;2022-07-22T09:08:22;6.93;;;2.95;;
48367;SDS011;34173;47.446;18.912;2022-07-22T09:10:50;5.75;;;3.05;;
48367;SDS011;34173;47.446;18.912;2022-07-22T09:13:18;15.18;;;3.03;;
48367;SDS011;34173;47.446;18.912;2022-07-22T09:19:02;6.68;;;3.70;;
48367;SDS011;34173;47.446;18.912;2022-07-22T09:21:30;7.53;;;3.53;;
48367;SDS011;34173;47.446;18.912;2022-07-22T09:23:59;8.15;;;3.75;;
48367;SDS011;34173;47.446;18.912;2022-07-22T09:29:36;10.38;;;3.80;;
48367;SDS011;34173;47.446;18.912;2022-07-22T09:32:06;8.02;;;3.85;;
48367;SDS011;34173;47.446;18.912;2022-07-22T09:34:36;7.03;;;3.72;;
48367;SDS011;34173;47.446;18.912;2022-07-22T09:37:06;12.43;;;3.55;;
48367;SDS011;34173;47.446;18.912;2022-07-22T09:39:34;7.10;;;3.35;;
48367;SDS011;34173;47.446;18.912;2022-07-22T09:42:04;10.30;;;4.30;;
48367;SDS011;34173;47.446;18.912;2022-07-22T09:44:33;7.12;;;3.47;;
48367;SDS011;34173;47.446;18.912;2022-07-22T09:47:03;7.15;;;3.67;;
48367;SDS011;34173;47.446;18.912;2022-07-22T09:49:33;6.90;;;3.58;;
48367;SDS011;34173;47.446;18.912;2022-07-22T09:52:05;9.32;;;4.10;;
48367;SDS011;34173;47.446;18.912;2022-07-22T09:54:34;10.07;;;4.15;;
48367;SDS011;34173;47.446;18.912;2022-07-22T09:57:03;10.43;;;4.22;;
48367;SDS011;34173;47.446;18.912;2022-07-22T09:59:31;5.97;;;4.40;;
48367;SDS011;34173;47.446;18.912;2022-07-22T10:01:59;8.48;;;4.75;;
48367;SDS011;34173;47.446;18.912;2022-07-22T10:04:31;8.82;;;4.90;;
48367;SDS011;34173;47.446;18.912;2022-07-22T10:07:01;11.60;;;4.93;;
48367;SDS011;34173;47.446;18.912;2022-07-22T10:09:30;10.82;;;4.80;;
48367;SDS011;34173;47.446;18.912;2022-07-22T10:11:59;8.90;;;4.60;;
48367;SDS011;34173;47.446;18.912;2022-07-22T10:14:27;13.80;;;5.32;;
48367;SDS011;34173;47.446;18.912;2022-07-22T10:16:56;8.68;;;4.95;;
48367;SDS011;34173;47.446;18.912;2022-07-22T10:21:58;7.20;;;4.95;;
48367;SDS011;34173;47.446;18.912;2022-07-22T10:24:26;7.80;;;4.72;;
48367;SDS011;34173;47.446;18.912;2022-07-22T10:26:54;9.40;;;5.30;;
48367;SDS011;34173;47.446;18.912;2022-07-22T10:38:16;7.47;;;4.80;;
48367;SDS011;34173;47.446;18.912;2022-07-22T10:40:50;8.43;;;4.78;;
48367;SDS011;34173;47.446;18.912;2022-07-22T10:43:22;7.60;;;4.53;;
48367;SDS011;34173;47.446;18.912;2022-07-22T10:45:56;8.63;;;5.00;;
48367;SDS011;34173;47.446;18.912;2022-07-22T10:48:43;9.10;;;4.60;;
48367;SDS011;34173;47.446;18.912;2022-07-22T10:51:17;7.15;;;4.03;;
48367;SDS011;34173;47.446;18.912;2022-07-22T10:54:00;9.77;;;4.50;;
48367;SDS011;34173;47.446;18.912;2022-07-22T10:56:34;7.82;;;4.18;;
48367;SDS011;34173;47.446;18.912;2022-07-22T10:59:10;5.75;;;3.90;;
48367;SDS011;34173;47.446;18.912;2022-07-22T11:01:39;8.35;;;3.67;;
48367;SDS011;34173;47.446;18.912;2022-07-22T11:04:22;8.43;;;4.10;;
48367;SDS011;34173;47.446;18.912;2022-07-22T11:06:55;5.18;;;3.20;;
48367;SDS011;34173;47.446;18.912;2022-07-22T11:09:31;8.63;;;3.25;;
48367;SDS011;34173;47.446;18.912;2022-07-22T11:12:00;6.72;;;3.33;;
48367;SDS011;34173;47.446;18.912;2022-07-22T11:14:29;7.22;;;3.97;;
48367;SDS011;34173;47.446;18.912;2022-07-22T11:16:59;6.82;;;3.53;;
48367;SDS011;34173;47.446;18.912;2022-07-22T11:19:34;7.05;;;3.70;;
48367;SDS011;34173;47.446;18.912;2022-07-22T11:22:32;6.50;;;3.67;;
48367;SDS011;34173;47.446;18.912;2022-07-22T11:25:00;8.18;;;3.80;;
48367;SDS011;34173;47.446;18.912;2022-07-22T11:27:30;7.57;;;3.47;;
48367;SDS011;34173;47.446;18.912;2022-07-22T11:29:58;5.85;;;3.83;;
48367;SDS011;34173;47.446;18.912;2022-07-22T11:32:27;9.27;;;4.00;;
48367;SDS011;34173;47.446;18.912;2022-07-22T11:34:58;5.95;;;3.53;;
48367;SDS011;34173;47.446;18.912;2022-07-22T11:37:27;6.53;;;3.80;;
48367;SDS011;34173;47.446;18.912;2022-07-22T11:40:02;9.43;;;3.60;;
48367;SDS011;34173;47.446;18.912;2022-07-22T11:42:43;9.52;;;3.50;;
48367;SDS011;34173;47.446;18.912;2022-07-22T11:45:13;9.85;;;3.55;;
48367;SDS011;34173;47.446;18.912;2022-07-22T11:47:48;11.15;;;3.58;;
48367;SDS011;34173;47.446;18.912;2022-07-22T11:50:17;8.18;;;3.62;;
48367;SDS011;34173;47.446;18.912;2022-07-22T11:52:56;7.85;;;3.50;;
48367;SDS011;34173;47.446;18.912;2022-07-22T11:55:24;5.12;;;3.35;;
48367;SDS011;34173;47.446;18.912;2022-07-22T11:57:51;7.35;;;3.60;;
48367;SDS011;34173;47.446;18.912;2022-07-22T12:00:19;5.68;;;3.80;;
48367;SDS011;34173;47.446;18.912;2022-07-22T12:02:47;6.93;;;3.80;;
48367;SDS011;34173;47.446;18.912;2022-07-22T12:05:15;6.93;;;3.37;;
48367;SDS011;34173;47.446;18.912;2022-07-22T12:07:59;6.10;;;3.47;;
48367;SDS011;34173;47.446;18.912;2022-07-22T12:13:18;9.43;;;4.12;;
48367;SDS011;34173;47.446;18.912;2022-07-22T12:15:46;7.53;;;3.90;;
48367;SDS011;34173;47.446;18.912;2022-07-22T12:18:14;9.32;;;4.00;;
48367;SDS011;34173;47.446;18.912;2022-07-22T12:20:47;5.70;;;3.80;;
48367;SDS011;34173;47.446;18.912;2022-07-22T12:23:24;7.05;;;4.00;;
48367;SDS011;34173;47.446;18.912;2022-07-22T12:25:57;6.62;;;3.67;;
48367;SDS011;34173;47.446;18.912;2022-07-22T12:28:26;7.95;;;4.43;;
48367;SDS011;34173;47.446;18.912;2022-07-22T12:30:55;6.70;;;4.05;;
48367;SDS011;34173;47.446;18.912;2022-07-22T12:33:23;8.20;;;4.20;;
48367;SDS011;34173;47.446;18.912;2022-07-22T12:36:02;6.65;;;3.95;;
48367;SDS011;34173;47.446;18.912;2022-07-22T12:38:33;8.07;;;4.07;;
48367;SDS011;34173;47.446;18.912;2022-07-22T12:41:21;9.02;;;3.70;;
48367;SDS011;34173;47.446;18.912;2022-07-22T12:43:50;7.80;;;4.03;;
48367;SDS011;34173;47.446;18.912;2022-07-22T12:46:18;8.25;;;4.18;;
48367;SDS011;34173;47.446;18.912;2022-07-22T12:48:51;4.90;;;3.37;;
48367;SDS011;34173;47.446;18.912;2022-07-22T12:51:20;13.27;;;4.50;;
48367;SDS011;34173;47.446;18.912;2022-07-22T12:53:47;12.00;;;4.43;;
48367;SDS011;34173;47.446;18.912;2022-07-22T12:56:15;7.82;;;4.28;;
48367;SDS011;34173;47.446;18.912;2022-07-22T12:58:47;6.85;;;4.25;;
48367;SDS011;34173;47.446;18.912;2022-07-22T13:01:14;7.47;;;4.10;;
48367;SDS011;34173;47.446;18.912;2022-07-22T13:03:42;8.63;;;4.10;;
48367;SDS011;34173;47.446;18.912;2022-07-22T13:06:10;7.32;;;3.78;;
48367;SDS011;34173;47.446;18.912;2022-07-22T13:08:39;9.13;;;4.32;;
48367;SDS011;34173;47.446;18.912;2022-07-22T13:11:13;6.32;;;3.97;;
48367;SDS011;34173;47.446;18.912;2022-07-22T13:13:42;9.88;;;4.50;;
48367;SDS011;34173;47.446;18.912;2022-07-22T13:16:10;8.27;;;4.12;;
48367;SDS011;34173;47.446;18.912;2022-07-22T13:18:39;9.50;;;4.12;;
48367;SDS011;34173;47.446;18.912;2022-07-22T13:21:07;42.05;;;6.03;;
48367;SDS011;34173;47.446;18.912;2022-07-22T13:23:34;9.02;;;4.18;;
48367;SDS011;34173;47.446;18.912;2022-07-22T13:26:02;9.70;;;4.00;;
48367;SDS011;34173;47.446;18.912;2022-07-22T13:28:30;8.95;;;4.00;;
48367;SDS011;34173;47.446;18.912;2022-07-22T13:30:57;8.23;;;3.60;;
48367;SDS011;34173;47.446;18.912;2022-07-22T13:33:25;7.50;;;3.60;;
48367;SDS011;34173;47.446;18.912;2022-07-22T13:35:53;11.00;;;3.97;;
48367;SDS011;34173;47.446;18.912;2022-07-22T13:38:21;6.37;;;3.60;;
48367;SDS011;34173;47.446;18.912;2022-07-22T13:40:50;8.77;;;3.83;;
48367;SDS011;34173;47.446;18.912;2022-07-22T13:43:19;8.55;;;4.12;;
48367;SDS011;34173;47.446;18.912;2022-07-22T13:45:48;7.85;;;3.35;;
48367;SDS011;34173;47.446;18.912;2022-07-22T13:48:16;5.65;;;3.47;;
48367;SDS011;34173;47.446;18.912;2022-07-22T13:50:48;8.88;;;4.03;;
48367;SDS011;34173;47.446;18.912;2022-07-22T13:53:16;8.57;;;4.22;;
48367;SDS011;34173;47.446;18.912;2022-07-22T13:55:43;11.10;;;4.07;;
48367;SDS011;34173;47.446;18.912;2022-07-22T13:58:11;6.78;;;3.62;;
48367;SDS011;34173;47.446;18.912;2022-07-22T14:00:39;9.63;;;4.32;;
48367;SDS011;34173;47.446;18.912;2022-07-22T14:03:07;7.53;;;4.32;;
48367;SDS011;34173;47.446;18.912;2022-07-22T14:05:35;7.50;;;3.85;;
48367;SDS011;34173;47.446;18.912;2022-07-22T14:08:03;5.95;;;3.70;;
48367;SDS011;34173;47.446;18.912;2022-07-22T14:10:31;5.97;;;4.00;;
48367;SDS011;34173;47.446;18.912;2022-07-22T14:12:58;7.43;;;3.97;;
48367;SDS011;34173;47.446;18.912;2022-07-22T14:15:26;7.47;;;3.85;;
48367;SDS011;34173;47.446;18.912;2022-07-22T14:17:54;7.00;;;3.40;;
48367;SDS011;34173;47.446;18.912;2022-07-22T14:20:21;9.88;;;4.07;;
48367;SDS011;34173;47.446;18.912;2022-07-22T14:22:51;11.07;;;4.10;;
48367;SDS011;34173;47.446;18.912;2022-07-22T14:25:19;8.25;;;4.10;;
48367;SDS011;34173;47.446;18.912;2022-07-22T14:27:47;11.10;;;4.12;;
48367;SDS011;34173;47.446;18.912;2022-07-22T14:30:15;8.43;;;4.25;;
48367;SDS011;34173;47.446;18.912;2022-07-22T14:32:43;8.75;;;3.75;;
48367;SDS011;34173;47.446;18.912;2022-07-22T14:35:10;10.38;;;3.90;;
48367;SDS011;34173;47.446;18.912;2022-07-22T14:37:38;9.77;;;3.50;;
48367;SDS011;34173;47.446;18.912;2022-07-22T14:40:06;8.95;;;3.97;;
48367;SDS011;34173;47.446;18.912;2022-07-22T14:42:34;11.43;;;4.10;;
48367;SDS011;34173;47.446;18.912;2022-07-22T14:45:02;8.60;;;3.75;;
48367;SDS011;34173;47.446;18.912;2022-07-22T14:47:38;8.75;;;3.60;;
48367;SDS011;34173;47.446;18.912;2022-07-22T14:50:06;12.43;;;3.92;;
48367;SDS011;34173;47.446;18.912;2022-07-22T14:52:34;8.90;;;4.25;;
48367;SDS011;34173;47.446;18.912;2022-07-22T14:55:02;9.05;;;4.40;;
48367;SDS011;34173;47.446;18.912;2022-07-22T14:57:30;10.57;;;3.80;;
48367;SDS011;34173;47.446;18.912;2022-07-22T14:59:59;9.50;;;4.10;;
48367;SDS011;34173;47.446;18.912;2022-07-22T15:02:27;9.20;;;3.85;;
48367;SDS011;34173;47.446;18.912;2022-07-22T15:04:55;9.52;;;3.85;;
48367;SDS011;34173;47.446;18.912;2022-07-22T15:07:22;9.95;;;4.10;;
48367;SDS011;34173;47.446;18.912;2022-07-22T15:09:54;7.93;;;4.18;;
48367;SDS011;34173;47.446;18.912;2022-07-22T15:12:22;10.48;;;4.40;;
48367;SDS011;34173;47.446;18.912;2022-07-22T15:15:10;10.65;;;3.90;;
48367;SDS011;34173;47.446;18.912;2022-07-22T15:17:38;9.98;;;3.62;;
48367;SDS011;34173;47.446;18.912;2022-07-22T15:20:06;7.75;;;4.18;;
48367;SDS011;34173;47.446;18.912;2022-07-22T15:22:34;12.32;;;4.03;;
48367;SDS011;34173;47.446;18.912;2022-07-22T15:28:23;6.78;;;4.10;;
48367;SDS011;34173;47.446;18.912;2022-07-22T15:31:00;7.68;;;3.85;;
48367;SDS011;34173;47.446;18.912;2022-07-22T15:33:28;7.53;;;3.90;;
48367;SDS011;34173;47.446;18.912;2022-07-22T15:36:04;15.70;;;4.10;;